Ridgeville, South Carolina
Current Conditions -  °F | °C
As of 8:15 AM on Saturday 22 Nov 2014 (Local Time) from KDYB Reporting Station
Clear Clear  
Wind Chill: 33°   Ceiling: Unl
Heat Index: 37°   Visibility: 10mi
Dew Point: 34°   Wind: 6mph
Humidity: 87%   Direction: 20°NNE
Pressure: 30.52"   Gusts: NA
Location:  33.1°N, 80.32°W
Report Text: KDYB 221315Z AUTO 02005KT 10SM CLR 03/01 A3052 RMK AO1
Loading
Personal Weather Stations






























Interactive Weather Map New forecast layout! Learn more

10-Day Weather Forecast

Advertisements
Track Severe Weather on mobile